Plymouth Light

42° 00' 12"N, 70° 36' 04"W, Elevation 54 ft.
Eastern Time

Hourly observations for the last 72 hours

Date Time Temperature (°F) Humi-
dity

(%)
Wind
(mph)
Pressure Rain (in) Sun
(W/m2)
ET
(in)
Air Dew 6 Hour 1 Hr 3 Hr 6 Hr Day
Alt
(in)
Sea
Level

(mb)
Max Min
2 02:00 39.6 37.2 42.0 39.4 91 N 17 G 31 29.57 1001.3 0.02 0.08 0.08 0.06 0 0.001
2 01:00 39.7 37.3 91 N 22 G 33 29.58 1001.8 0.04 0.04 0 0.000
2 00:00 40.2 37.2 89 NNE 23 G 33 29.60 1002.5 0.02 0.02 0 0.070
1 23:00 41.0 37.1 86 NNE 23 G 34 29.62 1003.2 0.00 0 0.068
1 22:00 41.9 37.7 85 N 16 G 25 29.64 1003.7 0.00 0 0.067
1 21:00 41.2 37.0 85 N 18 G 26 29.65 1004.1 0.00 0 0.066
1 20:00 40.3 36.7 40.4 36.8 87 NNE 16 G 26 29.66 1004.4 0.00 0 0.065
1 19:00 39.6 36.1 87 NNE 17 G 24 29.67 1004.7 0.00 12 0.063
1 18:00 39.6 35.5 85 NNE 13 G 21 29.70 1005.7 0.00 65 0.060
1 17:00 39.7 35.6 85 NNE 17 G 25 29.70 1005.7 0.00 255 0.055
1 16:00 38.3 35.1 88 NNE 21 G 28 29.70 1005.7 0.00 255 0.050
1 15:00 37.3 34.1 88 NNE 18 G 29 29.72 1006.3 0.00 301 0.045
1 14:00 36.9 34.0 38.8 35.8 89 NNE 19 G 30 29.73 1006.8 0.00 251 0.038
1 13:00 38.6 34.5 85 NNE 15 G 26 29.74 1007.2 0.00 408 0.030
1 12:00 38.1 34.0 85 NNE 16 G 25 29.75 1007.6 0.00 246 0.023
1 11:00 37.2 32.8 84 NE 22 G 30 29.77 1008.1 0.00 213 0.016
1 10:00 36.5 33.3 88 NE 20 G 27 29.79 1008.8 0.00 341 0.011
1 09:00 37.8 31.6 78 NE 21 G 28 29.80 1009.2 0.00 144 0.007
1 08:00 37.7 34.2 38.6 34.7 87 NE 20 G 27 29.79 1008.9 0.00 142 0.005
1 07:00 38.0 33.6 84 NE 14 G 22 29.79 1008.8 0.00 33 0.004
1 06:00 37.7 35.0 90 ENE 12 G 19 29.80 1009.1 0.00 0 0.003
1 05:00 35.2 32.8 91 N 9 G 14 29.82 1010.0 0.00 0 0.003
1 04:00 35.0 32.4 90 NNW 6 G 9 29.86 1011.1 0.00 0 0.003
1 03:00 36.9 33.7 88 NNE 11 G 15 29.85 1010.9 0.00 0 0.002
1 02:00 38.3 33.6 38.3 35.2 83 ENE 8 G 12 29.86 1011.3 0.00 0 0.001
1 01:00 37.8 33.1 83 ENE 4 G 8 29.90 1012.6 0.00 0 0.000
1 00:00 37.8 32.5 81 E 8 G 11 29.92 1013.1 0.00 0 0.075
31 23:00 37.3 32.0 81 E 12 G 16 29.93 1013.5 0.00 0 0.074
31 22:00 36.0 31.3 83 ENE 12 G 17 29.94 1013.9 0.00 0 0.073
31 21:00 35.8 30.5 81 ENE 12 G 19 29.96 1014.7 0.00 0 0.072
31 20:00 35.3 29.4 37.3 35.0 79 NE 14 G 17 29.96 1014.7 0.00 0 0.071
31 19:00 35.2 29.7 80 NE 11 G 15 29.97 1014.8 0.00 11 0.069
31 18:00 35.6 29.4 78 NE 12 G 16 29.98 1015.3 0.00 135 0.065
31 17:00 36.4 29.9 77 ENE 9 G 14 29.98 1015.2 0.00 345 0.058
31 16:00 36.8 29.6 75 NE 11 G 15 30.00 1015.8 0.00 522 0.049
31 15:00 37.0 30.1 76 NE 10 G 15 30.00 1015.9 0.00 663 0.041
31 14:00 35.9 30.3 38.1 35.8 80 NNE 14 G 20 30.00 1015.8 0.00 209 0.037
31 13:00 36.4 31.4 82 NNE 18 G 24 29.98 1015.3 0.00 188 0.032
31 12:00 37.3 30.8 77 NNE 19 G 25 29.99 1015.6 0.00 359 0.025
31 11:00 37.2 31.3 79 N 17 G 23 30.00 1016.1 0.00 366 0.018
31 10:00 38.1 32.2 79 NNE 14 G 22 30.02 1016.6 0.00 279 0.013
31 09:00 37.9 32.9 82 NNE 13 G 22 30.02 1016.7 0.00 114 0.010
31 08:00 37.6 34.1 38.9 37.4 87 NNE 18 G 27 30.00 1016.1 0.00 58 0.008
31 07:00 38.4 34.9 87 NNE 19 G 25 29.99 1015.6 0.00 9 0.006
31 06:00 38.9 35.4 87 NNE 17 G 26 29.97 1015.0 0.00 0 0.005
31 05:00 37.7 35.9 93 NNE 16 G 27 29.97 1014.9 0.00 0 0.004
31 04:00 38.1 35.4 90 NNE 19 G 27 29.97 1015.0 0.00 0 0.003
31 03:00 38.5 35.0 87 NE 15 G 22 29.98 1015.2 0.00 0 0.002
31 02:00 37.8 35.4 39.5 37.6 91 NE 21 G 30 29.97 1014.9 0.01 0.00 0 0.001
31 01:00 38.3 35.1 88 NE 25 G 30 29.96 1014.6 0.00 0 0.000
31 00:00 38.2 35.5 90 ENE 19 G 26 29.96 1014.7 0.05 0 0.035
30 23:00 38.1 36.0 92 ENE 21 G 27 29.96 1014.7 0.01 0.01 0.05 0 0.034
30 22:00 38.4 36.8 94 ENE 18 G 26 29.96 1014.6 0.04 0 0.033
30 21:00 38.9 37.3 94 NE 23 G 30 29.95 1014.4 0.04 0 0.032
30 20:00 39.4 38.4 40.9 39.1 96 NE 18 G 25 29.95 1014.1 0.02 0.02 0.02 0.04 0 0.032
30 19:00 39.3 38.0 95 NE 15 G 23 29.94 1014.1 0.02 5 0.031
30 18:00 39.3 37.7 94 NE 20 G 26 29.92 1013.3 0.02 25 0.030
30 17:00 39.4 38.4 96 NE 18 G 24 29.90 1012.7 0.02 51 0.028
30 16:00 39.9 38.9 96 NE 19 G 26 29.88 1011.9 0.02 132 0.025
30 15:00 40.5 39.5 96 NE 16 G 21 29.88 1011.8 0.02 158 0.021
30 14:00 40.7 39.6 41.2 40.2 96 NE 17 G 21 29.88 1011.9 0.02 216 0.017
30 13:00 40.9 39.8 96 NNE 16 G 22 29.88 1012.0 0.02 239 0.012
30 12:00 40.7 39.6 96 NNE 16 G 23 29.90 1012.7 0.02 241 0.008
30 11:00 40.7 39.4 95 NNE 19 G 24 29.92 1013.3 0.02 214 0.005
30 10:00 40.5 39.2 95 NE 20 G 26 29.92 1013.3 0.02 162 0.003
30 09:00 40.4 39.6 97 NE 20 G 26 29.90 1012.7 0.02 107 0.001
30 08:00 40.6 40.1 41.7 40.4 98 NE 18 G 24 29.92 1013.1 0.01 0.02 0.02 60 0.000
30 07:00 40.6 40.1 98 NNE 17 G 27 29.92 1013.1 0.01 0.02 12 0.000
30 06:00 41.1 40.6 98 NNE 16 G 23 29.90 1012.7 0.01 0 0.000
30 05:00 41.4 40.9 98 NE 17 G 25 29.87 1011.4 0.01 0.01 0.01 0 0.000
30 04:00 41.6 41.1 98 NE 16 G 21 29.86 1011.1 0.00 0 0.000
30 03:00 41.5 40.7 97 NE 17 G 25 29.85 1010.8 0.00 0 0.000

Data generated by WxSolution Version 1.9.1.1, Build 2017.11.27.